Time;durP1;ratioP1;P1;durP2;ratioP2;P2;SDS_P1;SDS_P2;PMS_P1;PMS_P2;Temp;Humidity;BMP_temperature;BMP_pressure;BME280_temperature;BME280_humidity;BME280_pressure;Samples;Min_cycle;Max_cycle;Signal;HPM_P1;HPM_P2
2022/06/03 00:02:03;;;;;;;0.85;0.70;;;;;;;;;;5161202;27;20197;-59
2022/06/03 00:04:42;;;;;;;0.80;0.80;;;;;;;;;;5158507;27;20201;-59
2022/06/03 00:07:17;;;;;;;0.90;0.80;;;;;;;;;;5160904;27;20267;-58
2022/06/03 00:10:03;;;;;;;1.17;0.80;;;;;;;;;;5155562;27;20212;-58
2022/06/03 00:12:45;;;;;;;0.77;0.77;;;;;;;;;;5119168;28;20225;-58
2022/06/03 00:15:19;;;;;;;1.63;1.05;;;;;;;;;;5120081;28;20250;-57
2022/06/03 00:17:58;;;;;;;0.98;0.80;;;;;;;;;;5119897;28;20211;-58
2022/06/03 00:20:32;;;;;;;1.00;0.80;;;;;;;;;;5119807;28;20203;-58
2022/06/03 00:23:07;;;;;;;0.65;0.65;;;;;;;;;;5119934;28;20198;-58
2022/06/03 00:25:51;;;;;;;0.77;0.70;;;;;;;;;;5119791;28;20210;-58
2022/06/03 00:28:24;;;;;;;0.80;0.80;;;;;;;;;;5103574;28;20213;-58
2022/06/03 00:31:02;;;;;;;0.70;0.70;;;;;;;;;;5119996;28;20213;-58
2022/06/03 00:33:53;;;;;;;0.80;0.80;;;;;;;;;;5119355;28;20313;-58
2022/06/03 00:36:34;;;;;;;0.85;0.85;;;;;;;;;;5099850;28;20203;-58
2022/06/03 00:39:12;;;;;;;0.98;0.75;;;;;;;;;;5119320;28;20252;-58
2022/06/03 00:41:46;;;;;;;1.17;0.73;;;;;;;;;;5119047;28;20245;-57
2022/06/03 00:44:28;;;;;;;1.40;0.70;;;;;;;;;;5119459;28;20213;-58
2022/06/03 00:47:05;;;;;;;0.68;0.68;;;;;;;;;;5074857;28;20210;-58
2022/06/03 00:49:41;;;;;;;0.70;0.70;;;;;;;;;;5118259;28;20211;-58
2022/06/03 00:52:27;;;;;;;0.95;0.90;;;;;;;;;;5118154;28;20235;-57
2022/06/03 00:55:01;;;;;;;0.98;0.93;;;;;;;;;;5118653;28;20276;-58
2022/06/03 00:57:46;;;;;;;0.85;0.80;;;;;;;;;;5118777;28;20611;-57
2022/06/03 01:00:19;;;;;;;2.17;1.00;;;;;;;;;;5118620;28;20260;-57
2022/06/03 01:03:05;;;;;;;1.90;0.88;;;;;;;;;;5118641;28;20312;-58
2022/06/03 01:05:35;;;;;;;0.68;0.68;;;;;;;;;;5118955;28;20237;-58
2022/06/03 01:08:07;;;;;;;0.80;0.80;;;;;;;;;;5117774;28;20220;-57
2022/06/03 01:10:41;;;;;;;1.85;0.65;;;;;;;;;;5119181;28;20205;-58
2022/06/03 01:13:29;;;;;;;0.82;0.80;;;;;;;;;;5118798;28;20693;-58
2022/06/03 01:16:00;;;;;;;0.90;0.90;;;;;;;;;;5118392;28;20202;-58
2022/06/03 01:18:34;;;;;;;0.80;0.80;;;;;;;;;;5117981;28;20210;-58
2022/06/03 01:21:16;;;;;;;0.77;0.77;;;;;;;;;;5118367;28;20212;-58
2022/06/03 01:23:59;;;;;;;1.35;0.90;;;;;;;;;;5114981;28;20202;-58
2022/06/03 01:26:48;;;;;;;0.82;0.82;;;;;;;;;;5117666;28;20256;-58
2022/06/03 01:29:36;;;;;;;0.88;0.88;;;;;;;;;;5119100;28;20206;-59
2022/06/03 01:32:30;;;;;;;0.65;0.65;;;;;;;;;;5118597;28;20231;-58
2022/06/03 01:35:09;;;;;;;1.75;0.90;;;;;;;;;;5117779;28;20195;-58
2022/06/03 01:37:40;;;;;;;1.00;0.90;;;;;;;;;;5118358;28;20209;-57
2022/06/03 01:40:22;;;;;;;1.25;0.70;;;;;;;;;;5118900;28;20199;-58
2022/06/03 01:43:01;;;;;;;0.90;0.90;;;;;;;;;;5117899;28;20199;-57
2022/06/03 01:45:38;;;;;;;0.80;0.80;;;;;;;;;;5118188;28;20242;-58
2022/06/03 01:48:12;;;;;;;0.68;0.68;;;;;;;;;;5118088;28;20202;-58
2022/06/03 01:51:12;;;;;;;1.00;1.00;;;;;;;;;;5118354;27;20206;-58
2022/06/03 01:53:58;;;;;;;1.02;1.00;;;;;;;;;;5138663;27;20237;-59
2022/06/03 01:56:34;;;;;;;1.90;0.93;;;;;;;;;;5138258;27;20278;-59
2022/06/03 01:59:09;;;;;;;0.98;0.98;;;;;;;;;;5138405;27;20217;-59
2022/06/03 02:02:09;;;;;;;0.80;0.80;;;;;;;;;;5135501;27;20219;-61
2022/06/03 02:04:54;;;;;;;0.80;0.80;;;;;;;;;;5124005;27;20195;-60
2022/06/03 02:07:39;;;;;;;1.50;0.98;;;;;;;;;;5101084;28;20203;-61
2022/06/03 02:10:21;;;;;;;1.30;1.00;;;;;;;;;;5136671;27;20201;-61
2022/06/03 02:13:04;;;;;;;1.05;1.02;;;;;;;;;;5137004;27;20284;-61
2022/06/03 02:15:50;;;;;;;1.05;1.00;;;;;;;;;;5115932;27;20206;-61
2022/06/03 02:18:40;;;;;;;0.90;0.90;;;;;;;;;;5134485;27;20204;-61
2022/06/03 02:21:25;;;;;;;1.92;0.88;;;;;;;;;;5137243;27;20505;-61
2022/06/03 02:24:10;;;;;;;1.60;0.90;;;;;;;;;;5136658;27;20481;-60
2022/06/03 02:26:47;;;;;;;1.52;1.00;;;;;;;;;;5135295;27;20206;-60
2022/06/03 02:32:25;;;;;;;1.35;0.90;;;;;;;;;;5136565;27;20282;-60
2022/06/03 02:35:07;;;;;;;1.10;1.00;;;;;;;;;;5135909;27;20397;-61
2022/06/03 02:37:50;;;;;;;3.00;0.90;;;;;;;;;;5137488;27;20202;-61
2022/06/03 02:40:24;;;;;;;1.00;0.90;;;;;;;;;;5133391;27;20229;-61
2022/06/03 02:43:10;;;;;;;0.90;0.80;;;;;;;;;;5136755;27;20189;-61
2022/06/03 02:45:54;;;;;;;0.88;0.88;;;;;;;;;;5151521;27;20262;-61
2022/06/03 02:48:39;;;;;;;0.90;0.90;;;;;;;;;;5150901;27;20198;-61
2022/06/03 02:51:21;;;;;;;1.20;1.10;;;;;;;;;;5124089;27;20256;-61
2022/06/03 02:54:03;;;;;;;1.10;0.90;;;;;;;;;;5135921;27;20848;-61
2022/06/03 02:56:40;;;;;;;1.00;1.00;;;;;;;;;;5091627;28;20209;-61
2022/06/03 02:59:18;;;;;;;0.90;0.90;;;;;;;;;;5137383;27;20202;-61
2022/06/03 03:02:06;;;;;;;0.95;0.95;;;;;;;;;;5136496;27;20205;-60
2022/06/03 03:04:49;;;;;;;0.90;0.90;;;;;;;;;;5136534;27;20615;-60
2022/06/03 03:07:34;;;;;;;1.00;1.00;;;;;;;;;;5136577;27;20609;-61
2022/06/03 03:10:13;;;;;;;0.90;0.90;;;;;;;;;;5147167;27;20576;-61
2022/06/03 03:12:56;;;;;;;0.90;0.90;;;;;;;;;;5150722;27;20270;-61
2022/06/03 03:15:30;;;;;;;1.45;1.20;;;;;;;;;;5140363;27;20200;-60
2022/06/03 03:18:06;;;;;;;4.93;0.90;;;;;;;;;;5141025;27;20198;-61
2022/06/03 03:20:54;;;;;;;1.10;1.10;;;;;;;;;;5141886;27;20573;-62
2022/06/03 03:23:43;;;;;;;1.35;1.00;;;;;;;;;;5141164;27;20529;-61
2022/06/03 03:26:16;;;;;;;1.00;1.00;;;;;;;;;;5158870;27;20197;-62
2022/06/03 03:29:08;;;;;;;0.80;0.80;;;;;;;;;;5161708;27;20292;-62
2022/06/03 03:31:51;;;;;;;1.00;1.00;;;;;;;;;;5162055;27;20255;-61
2022/06/03 03:34:31;;;;;;;1.00;1.00;;;;;;;;;;5162474;27;20229;-61
2022/06/03 03:37:12;;;;;;;0.90;0.90;;;;;;;;;;5161500;27;20197;-62
2022/06/03 03:39:56;;;;;;;1.00;1.00;;;;;;;;;;5160926;27;20205;-61
2022/06/03 03:42:41;;;;;;;0.98;0.98;;;;;;;;;;5161712;27;20234;-61
2022/06/03 03:45:32;;;;;;;1.08;1.08;;;;;;;;;;5108916;27;20567;-61
2022/06/03 03:48:20;;;;;;;0.90;0.90;;;;;;;;;;5161360;27;20202;-61
2022/06/03 03:50:58;;;;;;;1.02;1.02;;;;;;;;;;5160716;27;20288;-60
2022/06/03 03:53:41;;;;;;;1.15;1.05;;;;;;;;;;5160018;27;20323;-60
2022/06/03 03:56:23;;;;;;;0.90;0.90;;;;;;;;;;5159887;27;20706;-61
2022/06/03 03:59:01;;;;;;;1.30;1.23;;;;;;;;;;5161660;27;20261;-62
2022/06/03 04:01:43;;;;;;;1.00;1.00;;;;;;;;;;5151980;27;20190;-62
2022/06/03 04:04:27;;;;;;;1.02;1.00;;;;;;;;;;5139356;27;20600;-61
2022/06/03 04:07:10;;;;;;;1.10;0.98;;;;;;;;;;5139647;27;20448;-60
2022/06/03 04:09:57;;;;;;;0.90;0.90;;;;;;;;;;5139922;27;20585;-61
2022/06/03 04:12:55;;;;;;;1.00;1.00;;;;;;;;;;5140349;27;20202;-61
2022/06/03 04:15:52;;;;;;;1.00;1.00;;;;;;;;;;5139679;27;20241;-61
2022/06/03 04:18:38;;;;;;;1.10;1.10;;;;;;;;;;5140064;27;20201;-60
2022/06/03 04:21:24;;;;;;;1.00;1.00;;;;;;;;;;5138744;27;20212;-60
2022/06/03 04:24:28;;;;;;;0.98;0.98;;;;;;;;;;5139648;27;20206;-61
2022/06/03 04:27:18;;;;;;;1.00;1.00;;;;;;;;;;5138318;27;20202;-60
2022/06/03 04:30:04;;;;;;;1.10;1.10;;;;;;;;;;5138594;27;20206;-61
2022/06/03 04:32:50;;;;;;;1.20;1.20;;;;;;;;;;5138368;27;20228;-61
2022/06/03 04:35:37;;;;;;;1.10;1.10;;;;;;;;;;5137646;27;20267;-61
2022/06/03 04:38:19;;;;;;;1.10;1.10;;;;;;;;;;5095875;27;20202;-61
2022/06/03 04:41:02;;;;;;;1.20;1.10;;;;;;;;;;5144386;27;20324;-61
2022/06/03 04:43:48;;;;;;;1.15;1.10;;;;;;;;;;5158130;27;20209;-61
2022/06/03 04:46:33;;;;;;;1.20;1.20;;;;;;;;;;5158585;27;20572;-61
2022/06/03 04:49:15;;;;;;;1.20;1.10;;;;;;;;;;5158512;27;20300;-60
2022/06/03 04:51:59;;;;;;;1.10;1.10;;;;;;;;;;5105242;27;20187;-61
2022/06/03 04:54:44;;;;;;;1.20;1.20;;;;;;;;;;5136631;27;20222;-61
2022/06/03 04:57:29;;;;;;;1.10;1.10;;;;;;;;;;5135480;27;20202;-61
2022/06/03 05:00:10;;;;;;;1.10;1.10;;;;;;;;;;5155504;27;20470;-61
2022/06/03 05:02:58;;;;;;;1.10;1.10;;;;;;;;;;5156245;27;20481;-62
2022/06/03 05:05:51;;;;;;;1.17;1.17;;;;;;;;;;5108477;27;20310;-62
2022/06/03 05:08:45;;;;;;;1.30;1.20;;;;;;;;;;5155053;27;20213;-61
2022/06/03 05:11:31;;;;;;;1.20;1.20;;;;;;;;;;5138143;27;20209;-61
2022/06/03 05:14:30;;;;;;;1.10;1.10;;;;;;;;;;5133295;27;20214;-62
2022/06/03 05:17:17;;;;;;;1.02;1.02;;;;;;;;;;5134214;27;20209;-60
2022/06/03 05:20:15;;;;;;;1.00;1.00;;;;;;;;;;5135729;27;20226;-61
2022/06/03 05:22:58;;;;;;;1.30;1.20;;;;;;;;;;5136938;27;20259;-61
2022/06/03 05:25:49;;;;;;;1.02;1.02;;;;;;;;;;5130194;27;20229;-62
2022/06/03 05:28:35;;;;;;;1.10;1.10;;;;;;;;;;5109390;27;20198;-61
2022/06/03 05:31:14;;;;;;;1.08;1.00;;;;;;;;;;5135028;27;20290;-61
2022/06/03 05:34:00;;;;;;;1.30;1.27;;;;;;;;;;5135442;27;20320;-60
2022/06/03 05:36:44;;;;;;;1.13;1.13;;;;;;;;;;5135012;27;20221;-61
2022/06/03 05:39:30;;;;;;;1.20;1.20;;;;;;;;;;5134321;27;20202;-62
2022/06/03 05:42:27;;;;;;;1.13;1.13;;;;;;;;;;5116915;27;20651;-61
2022/06/03 05:45:02;;;;;;;1.30;1.30;;;;;;;;;;5113578;28;20249;-61
2022/06/03 05:47:34;;;;;;;1.23;1.23;;;;;;;;;;5112764;28;20205;-61
2022/06/03 05:50:04;;;;;;;1.38;1.27;;;;;;;;;;5120553;27;20209;-62
2022/06/03 05:52:48;;;;;;;1.33;1.30;;;;;;;;;;5133660;27;20194;-62
2022/06/03 05:55:24;;;;;;;1.10;1.10;;;;;;;;;;5117919;27;20234;-61
2022/06/03 05:57:58;;;;;;;1.20;1.13;;;;;;;;;;5114824;28;20213;-61
2022/06/03 06:00:36;;;;;;;1.10;1.10;;;;;;;;;;5114807;28;20206;-61
2022/06/03 06:03:13;;;;;;;1.50;1.40;;;;;;;;;;5112782;28;20646;-61
2022/06/03 06:05:43;;;;;;;1.10;1.10;;;;;;;;;;5114737;27;20202;-61
2022/06/03 06:08:20;;;;;;;1.10;1.10;;;;;;;;;;5134435;27;20221;-60
2022/06/03 06:10:52;;;;;;;1.13;1.13;;;;;;;;;;5135016;27;20300;-61
2022/06/03 06:13:27;;;;;;;1.10;1.10;;;;;;;;;;5135639;27;20314;-61
2022/06/03 06:16:03;;;;;;;1.40;1.33;;;;;;;;;;5136189;27;20719;-61
2022/06/03 06:18:40;;;;;;;1.20;1.10;;;;;;;;;;5135443;27;20508;-62
2022/06/03 06:21:13;;;;;;;1.10;1.10;;;;;;;;;;5132966;27;20220;-62
2022/06/03 06:23:43;;;;;;;1.50;1.15;;;;;;;;;;5115312;27;20187;-61
2022/06/03 06:26:19;;;;;;;1.10;1.10;;;;;;;;;;5134479;27;20248;-61
2022/06/03 06:29:00;;;;;;;1.17;1.17;;;;;;;;;;5119391;27;20678;-61
2022/06/03 06:31:38;;;;;;;1.83;1.10;;;;;;;;;;5112255;28;20207;-61
2022/06/03 06:34:14;;;;;;;1.30;1.20;;;;;;;;;;5113758;28;20299;-61
2022/06/03 06:37:14;;;;;;;1.25;1.02;;;;;;;;;;5113646;28;20203;-61
2022/06/03 06:39:48;;;;;;;1.30;1.30;;;;;;;;;;5117814;27;20202;-60
2022/06/03 06:42:18;;;;;;;2.40;1.83;;;;;;;;;;5153131;27;20304;-60
2022/06/03 06:44:52;;;;;;;3.38;2.78;;;;;;;;;;5155233;27;20693;-63
2022/06/03 06:47:23;;;;;;;4.72;4.00;;;;;;;;;;5154140;27;20471;-61
2022/06/03 06:49:58;;;;;;;6.97;6.28;;;;;;;;;;5154570;27;20202;-61
2022/06/03 06:52:40;;;;;;;9.05;8.18;;;;;;;;;;5155101;27;20376;-61
2022/06/03 06:55:15;;;;;;;12.02;10.82;;;;;;;;;;5151139;27;20236;-60
2022/06/03 06:57:46;;;;;;;14.68;12.02;;;;;;;;;;5133546;27;20198;-61
2022/06/03 07:00:17;;;;;;;15.00;13.40;;;;;;;;;;5133858;28;20391;-61
2022/06/03 07:02:48;;;;;;;16.05;14.35;;;;;;;;;;5132331;28;20203;-61
2022/06/03 07:05:19;;;;;;;16.02;14.35;;;;;;;;;;5134172;28;20205;-61
2022/06/03 07:07:51;;;;;;;16.83;15.20;;;;;;;;;;5131970;28;20205;-61
2022/06/03 07:10:20;;;;;;;17.45;15.65;;;;;;;;;;5132467;28;20680;-60
2022/06/03 07:12:51;;;;;;;19.00;17.08;;;;;;;;;;5133245;28;20205;-60
2022/06/03 07:15:22;;;;;;;20.65;18.42;;;;;;;;;;5133064;28;20317;-60
2022/06/03 07:20:47;;;;;;;20.35;18.20;;;;;;;;;;5132484;28;20190;-61
2022/06/03 07:23:19;;;;;;;21.85;19.63;;;;;;;;;;5133402;28;20475;-60
2022/06/03 07:25:48;;;;;;;21.92;19.58;;;;;;;;;;5132823;28;20590;-62
2022/06/03 07:28:23;;;;;;;23.60;21.17;;;;;;;;;;5131906;28;20265;-62
2022/06/03 07:30:53;;;;;;;24.27;21.77;;;;;;;;;;5134654;28;20696;-60
2022/06/03 07:33:36;;;;;;;23.65;21.15;;;;;;;;;;5133410;28;20255;-61
2022/06/03 07:36:10;;;;;;;24.63;22.13;;;;;;;;;;5133612;27;20269;-60
2022/06/03 07:38:45;;;;;;;24.58;22.05;;;;;;;;;;5132968;28;20207;-60
2022/06/03 07:41:16;;;;;;;24.95;22.38;;;;;;;;;;5130773;27;20226;-60
2022/06/03 07:43:46;;;;;;;24.45;21.85;;;;;;;;;;5138236;27;20205;-60
2022/06/03 07:46:16;;;;;;;27.40;24.48;;;;;;;;;;5121480;28;20195;-62
2022/06/03 07:48:44;;;;;;;26.83;24.13;;;;;;;;;;5131967;27;20198;-61
2022/06/03 07:51:20;;;;;;;27.77;24.88;;;;;;;;;;5133940;27;20202;-63
2022/06/03 07:53:50;;;;;;;26.77;23.95;;;;;;;;;;5134505;27;20201;-61
2022/06/03 07:56:20;;;;;;;26.85;23.95;;;;;;;;;;5134606;27;20234;-61
2022/06/03 07:58:49;;;;;;;25.48;22.85;;;;;;;;;;5134193;28;20205;-60
2022/06/03 08:01:22;;;;;;;28.55;25.58;;;;;;;;;;5134913;27;20495;-62
2022/06/03 08:03:50;;;;;;;27.27;24.25;;;;;;;;;;5137595;27;20198;-62
2022/06/03 08:06:26;;;;;;;27.85;24.95;;;;;;;;;;5137963;27;20210;-61
2022/06/03 08:11:43;;;;;;;26.58;23.75;;;;;;;;;;5137078;27;20251;-61
2022/06/03 08:14:10;;;;;;;26.45;23.65;;;;;;;;;;5137189;27;20222;-61
2022/06/03 08:16:39;;;;;;;26.60;23.80;;;;;;;;;;5138465;27;20576;-62
2022/06/03 08:19:09;;;;;;;27.85;24.95;;;;;;;;;;5137204;27;20224;-62
2022/06/03 08:21:41;;;;;;;27.90;25.10;;;;;;;;;;5137556;27;20225;-62
2022/06/03 08:24:12;;;;;;;25.77;23.10;;;;;;;;;;5137263;27;20190;-62
2022/06/03 08:26:42;;;;;;;25.80;23.10;;;;;;;;;;5136894;27;20194;-62
2022/06/03 08:29:16;;;;;;;25.23;22.73;;;;;;;;;;5134264;27;20218;-61
2022/06/03 08:31:45;;;;;;;22.92;20.48;;;;;;;;;;5135107;27;20259;-61
2022/06/03 08:34:15;;;;;;;22.42;20.02;;;;;;;;;;5133733;27;20301;-61
2022/06/03 08:36:44;;;;;;;21.27;19.05;;;;;;;;;;5133877;27;20403;-61
2022/06/03 08:39:15;;;;;;;20.80;18.70;;;;;;;;;;5135682;27;20345;-61
2022/06/03 08:41:53;;;;;;;20.55;18.55;;;;;;;;;;5132995;27;20234;-62
2022/06/03 08:44:35;;;;;;;20.75;18.60;;;;;;;;;;5134315;27;20247;-61
2022/06/03 08:47:07;;;;;;;18.73;16.92;;;;;;;;;;5140439;27;20479;-61
2022/06/03 08:49:44;;;;;;;17.00;15.30;;;;;;;;;;5150806;27;20288;-61
2022/06/03 08:52:14;;;;;;;17.45;15.75;;;;;;;;;;5135888;27;20561;-61
2022/06/03 08:54:44;;;;;;;16.67;15.07;;;;;;;;;;5136026;27;20291;-61
2022/06/03 08:57:14;;;;;;;17.23;15.52;;;;;;;;;;5137399;27;20198;-61
2022/06/03 08:59:43;;;;;;;16.42;14.73;;;;;;;;;;5136232;27;20202;-61
2022/06/03 09:02:12;;;;;;;16.52;14.82;;;;;;;;;;5136911;27;20198;-61
2022/06/03 09:04:42;;;;;;;16.52;14.93;;;;;;;;;;5155255;27;20237;-61
2022/06/03 09:07:16;;;;;;;14.77;13.30;;;;;;;;;;5156533;27;20734;-61
2022/06/03 09:09:47;;;;;;;14.10;12.73;;;;;;;;;;5158210;27;20211;-61
2022/06/03 09:12:30;;;;;;;13.32;12.07;;;;;;;;;;5157098;27;20212;-61
2022/06/03 09:15:02;;;;;;;13.18;11.77;;;;;;;;;;5156882;27;20233;-61
2022/06/03 09:17:35;;;;;;;12.57;11.38;;;;;;;;;;5118329;27;20201;-61
2022/06/03 09:20:06;;;;;;;12.88;11.68;;;;;;;;;;5135536;27;20234;-61
2022/06/03 09:22:34;;;;;;;11.85;10.75;;;;;;;;;;5135015;27;20203;-61
2022/06/03 09:25:06;;;;;;;11.70;10.60;;;;;;;;;;5134392;27;20487;-61
2022/06/03 09:27:36;;;;;;;11.23;10.23;;;;;;;;;;5135942;27;20205;-61
2022/06/03 09:30:05;;;;;;;10.50;9.60;;;;;;;;;;5136064;27;20198;-61
2022/06/03 09:32:38;;;;;;;10.68;9.57;;;;;;;;;;5133506;27;20199;-61
2022/06/03 09:35:08;;;;;;;10.88;9.88;;;;;;;;;;5136609;27;20229;-61
2022/06/03 09:37:37;;;;;;;9.68;8.68;;;;;;;;;;5135473;27;20485;-61
2022/06/03 09:40:09;;;;;;;9.98;9.10;;;;;;;;;;5136141;27;20456;-61
2022/06/03 09:42:39;;;;;;;9.63;8.75;;;;;;;;;;5135643;27;20586;-61
2022/06/03 09:45:08;;;;;;;9.88;8.98;;;;;;;;;;5134824;27;20194;-61
2022/06/03 09:47:37;;;;;;;9.13;8.27;;;;;;;;;;5131858;27;20566;-61
2022/06/03 09:50:05;;;;;;;8.65;7.88;;;;;;;;;;5120917;27;20285;-61
2022/06/03 09:52:32;;;;;;;8.27;7.57;;;;;;;;;;5126971;27;20593;-61
2022/06/03 09:55:02;;;;;;;7.97;7.25;;;;;;;;;;5135218;27;20229;-61
2022/06/03 09:57:33;;;;;;;8.32;7.60;;;;;;;;;;5130911;27;20601;-61
2022/06/03 10:00:03;;;;;;;7.32;6.72;;;;;;;;;;5113718;28;20206;-61
2022/06/03 10:02:31;;;;;;;7.32;6.72;;;;;;;;;;5114525;28;20739;-61
2022/06/03 10:05:01;;;;;;;7.20;6.60;;;;;;;;;;5114495;28;20199;-61
2022/06/03 10:07:28;;;;;;;6.88;6.28;;;;;;;;;;5114660;28;20213;-61
2022/06/03 10:12:52;;;;;;;6.63;6.05;;;;;;;;;;5089334;27;20247;-61
2022/06/03 10:15:39;;;;;;;6.80;6.20;;;;;;;;;;5135338;27;20218;-62
2022/06/03 10:18:11;;;;;;;6.45;5.85;;;;;;;;;;5135323;27;20204;-61
2022/06/03 10:20:38;;;;;;;5.90;5.40;;;;;;;;;;5133515;27;20606;-62
2022/06/03 10:23:08;;;;;;;6.38;5.80;;;;;;;;;;5134663;27;20198;-61
2022/06/03 10:25:37;;;;;;;5.80;5.30;;;;;;;;;;5132901;27;20600;-61
2022/06/03 10:28:07;;;;;;;5.53;5.03;;;;;;;;;;5132511;27;20584;-61
2022/06/03 10:30:36;;;;;;;5.78;5.28;;;;;;;;;;5134378;27;20202;-61
2022/06/03 10:33:05;;;;;;;4.72;4.32;;;;;;;;;;5133035;27;20198;-61
2022/06/03 10:35:38;;;;;;;5.05;4.65;;;;;;;;;;5132409;27;20229;-61
2022/06/03 10:38:06;;;;;;;5.45;5.03;;;;;;;;;;5133717;27;20216;-61
2022/06/03 10:40:35;;;;;;;4.90;4.50;;;;;;;;;;5134557;27;20225;-62
2022/06/03 10:43:04;;;;;;;5.15;4.70;;;;;;;;;;5133853;27;20585;-61
2022/06/03 10:45:35;;;;;;;4.90;4.50;;;;;;;;;;5133663;27;20198;-61
2022/06/03 10:48:03;;;;;;;4.93;4.40;;;;;;;;;;5132804;27;20190;-62
2022/06/03 10:50:32;;;;;;;4.60;4.30;;;;;;;;;;5133378;27;20194;-61
2022/06/03 11:01:32;;;;;;;4.32;4.03;;;;;;;;;;5133559;28;20197;-61
2022/06/03 11:04:00;;;;;;;4.25;3.85;;;;;;;;;;5133906;27;20225;-62
2022/06/03 11:06:33;;;;;;;4.30;4.00;;;;;;;;;;5132577;28;20585;-61
2022/06/03 11:09:02;;;;;;;4.15;3.85;;;;;;;;;;5133485;27;20202;-62
2022/06/03 11:11:34;;;;;;;3.92;3.63;;;;;;;;;;5133254;27;20495;-61
2022/06/03 11:14:22;;;;;;;4.18;3.78;;;;;;;;;;5134536;27;20719;-61
2022/06/03 11:16:52;;;;;;;3.42;3.13;;;;;;;;;;5132367;27;20530;-62
2022/06/03 11:19:21;;;;;;;3.92;3.63;;;;;;;;;;5130283;28;20195;-61
2022/06/03 11:21:49;;;;;;;3.72;3.42;;;;;;;;;;5133634;27;20199;-61
2022/06/03 11:24:16;;;;;;;3.70;3.40;;;;;;;;;;5123517;28;20194;-61
2022/06/03 11:26:45;;;;;;;3.67;3.38;;;;;;;;;;5134306;28;20193;-62
2022/06/03 11:29:17;;;;;;;3.55;3.25;;;;;;;;;;5133250;28;20221;-62
2022/06/03 11:31:46;;;;;;;3.55;3.35;;;;;;;;;;5134446;28;20514;-62
2022/06/03 11:34:17;;;;;;;3.10;2.90;;;;;;;;;;5134014;28;20202;-61
2022/06/03 11:36:47;;;;;;;3.78;3.47;;;;;;;;;;5126306;27;20703;-62
2022/06/03 11:39:19;;;;;;;3.13;2.92;;;;;;;;;;5129567;27;20186;-62
2022/06/03 11:41:49;;;;;;;3.13;2.90;;;;;;;;;;5122467;27;20275;-62
2022/06/03 11:44:19;;;;;;;3.42;3.15;;;;;;;;;;5116259;28;20602;-62
2022/06/03 11:46:49;;;;;;;2.80;2.60;;;;;;;;;;5115113;28;20191;-62
2022/06/03 11:49:19;;;;;;;2.95;2.75;;;;;;;;;;5117355;28;20198;-62
2022/06/03 11:51:47;;;;;;;3.42;3.10;;;;;;;;;;5116713;27;20214;-62
2022/06/03 11:54:17;;;;;;;3.17;2.97;;;;;;;;;;5136060;27;20609;-61
2022/06/03 11:56:46;;;;;;;3.20;3.00;;;;;;;;;;5129824;27;20217;-61
2022/06/03 11:59:15;;;;;;;2.95;2.75;;;;;;;;;;5116211;28;20202;-61
2022/06/03 12:01:47;;;;;;;3.05;2.85;;;;;;;;;;5115676;28;20461;-62
2022/06/03 12:04:18;;;;;;;2.92;2.72;;;;;;;;;;5109417;27;20577;-61
2022/06/03 12:06:50;;;;;;;3.03;2.83;;;;;;;;;;5134764;27;20209;-61
2022/06/03 12:09:24;;;;;;;2.90;2.70;;;;;;;;;;5134203;27;20202;-61
2022/06/03 12:14:47;;;;;;;2.65;2.55;;;;;;;;;;5134691;27;20190;-62
2022/06/03 12:17:23;;;;;;;2.58;2.40;;;;;;;;;;5127844;27;20226;-62
2022/06/03 12:19:52;;;;;;;2.60;2.40;;;;;;;;;;5135658;27;20489;-62
2022/06/03 12:22:34;;;;;;;2.90;2.70;;;;;;;;;;5135462;27;20194;-62
2022/06/03 12:25:04;;;;;;;2.92;2.72;;;;;;;;;;5120911;27;20593;-62
2022/06/03 12:27:34;;;;;;;2.70;2.50;;;;;;;;;;5115930;28;20203;-62
2022/06/03 12:30:19;;;;;;;2.97;2.78;;;;;;;;;;5093501;28;20202;-61
2022/06/03 12:32:52;;;;;;;2.60;2.40;;;;;;;;;;5112772;28;20195;-61
2022/06/03 12:35:40;;;;;;;2.70;2.50;;;;;;;;;;5114492;28;20226;-61
2022/06/03 12:38:26;;;;;;;2.25;2.05;;;;;;;;;;5090902;28;20203;-62
2022/06/03 12:40:57;;;;;;;2.92;2.72;;;;;;;;;;5112809;28;20341;-62
2022/06/03 12:43:25;;;;;;;2.78;2.58;;;;;;;;;;5114442;28;20230;-62
2022/06/03 12:45:59;;;;;;;2.67;2.58;;;;;;;;;;5113956;28;20198;-62
2022/06/03 12:48:47;;;;;;;2.42;2.33;;;;;;;;;;5112452;28;20204;-61
2022/06/03 12:51:24;;;;;;;2.53;2.40;;;;;;;;;;5094759;28;20402;-62
2022/06/03 12:53:53;;;;;;;2.55;2.35;;;;;;;;;;5094415;28;20234;-62
2022/06/03 12:56:27;;;;;;;2.90;2.70;;;;;;;;;;5094155;28;20257;-61
2022/06/03 12:58:58;;;;;;;2.47;2.38;;;;;;;;;;5093857;28;20302;-62
2022/06/03 13:01:33;;;;;;;2.55;2.35;;;;;;;;;;5092537;28;20204;-61
2022/06/03 13:04:16;;;;;;;2.42;2.22;;;;;;;;;;5103750;28;20243;-61
2022/06/03 13:06:59;;;;;;;2.17;1.98;;;;;;;;;;5113294;28;20594;-61
2022/06/03 13:09:42;;;;;;;2.38;2.20;;;;;;;;;;5113778;28;20505;-62
2022/06/03 13:12:18;;;;;;;2.28;2.17;;;;;;;;;;5114944;28;20369;-61
2022/06/03 13:14:46;;;;;;;2.28;2.15;;;;;;;;;;5116451;28;20786;-61
2022/06/03 13:17:28;;;;;;;2.40;2.20;;;;;;;;;;5115298;28;20218;-61
2022/06/03 13:19:58;;;;;;;2.20;2.10;;;;;;;;;;5114952;28;20195;-61
2022/06/03 13:22:31;;;;;;;2.33;2.22;;;;;;;;;;5115595;28;20198;-61
2022/06/03 13:25:20;;;;;;;2.58;2.20;;;;;;;;;;5114744;28;20226;-61
2022/06/03 13:28:02;;;;;;;2.30;2.10;;;;;;;;;;5105268;28;20258;-61
2022/06/03 13:30:37;;;;;;;2.45;2.35;;;;;;;;;;5110849;28;20197;-62
2022/06/03 13:33:14;;;;;;;2.10;2.00;;;;;;;;;;5112691;28;20204;-62
2022/06/03 13:36:01;;;;;;;2.65;2.45;;;;;;;;;;5113124;28;20224;-61
2022/06/03 13:38:40;;;;;;;2.17;2.08;;;;;;;;;;5113723;28;20195;-62
2022/06/03 13:44:10;;;;;;;2.60;2.40;;;;;;;;;;5112838;28;20255;-62
2022/06/03 13:46:40;;;;;;;2.10;2.00;;;;;;;;;;5128511;27;20294;-62
2022/06/03 13:49:12;;;;;;;2.25;2.10;;;;;;;;;;5153318;27;20219;-62
2022/06/03 13:51:53;;;;;;;2.20;2.10;;;;;;;;;;5148034;27;20229;-62
2022/06/03 13:54:22;;;;;;;2.22;2.13;;;;;;;;;;5132000;27;20193;-62
2022/06/03 13:56:58;;;;;;;2.20;1.95;;;;;;;;;;5133312;27;20282;-62
2022/06/03 13:59:27;;;;;;;3.58;2.33;;;;;;;;;;5132618;27;20201;-62
2022/06/03 14:01:56;;;;;;;2.10;2.00;;;;;;;;;;5133419;27;20202;-61
2022/06/03 14:04:26;;;;;;;2.33;2.17;;;;;;;;;;5144581;27;20194;-61
2022/06/03 14:06:56;;;;;;;2.20;2.10;;;;;;;;;;5153746;27;20293;-61
2022/06/03 14:09:27;;;;;;;2.30;2.10;;;;;;;;;;5156521;27;20204;-61
2022/06/03 14:11:56;;;;;;;2.28;2.10;;;;;;;;;;5155802;27;20193;-61
2022/06/03 14:14:25;;;;;;;2.38;2.17;;;;;;;;;;5156016;27;20193;-62
2022/06/03 14:16:54;;;;;;;2.30;2.20;;;;;;;;;;5154131;27;20517;-62
2022/06/03 14:19:33;;;;;;;2.20;2.10;;;;;;;;;;5153589;27;20202;-61
2022/06/03 14:22:03;;;;;;;2.83;2.35;;;;;;;;;;5150434;27;20588;-63
2022/06/03 14:24:32;;;;;;;2.50;2.40;;;;;;;;;;5133019;27;20210;-61
2022/06/03 14:27:03;;;;;;;2.53;2.33;;;;;;;;;;5132732;27;20190;-61
2022/06/03 14:29:33;;;;;;;2.33;2.13;;;;;;;;;;5131738;27;20198;-61
2022/06/03 14:32:03;;;;;;;2.38;2.20;;;;;;;;;;5132622;27;20480;-61
2022/06/03 14:34:34;;;;;;;2.40;2.20;;;;;;;;;;5133539;27;20198;-61
2022/06/03 14:37:03;;;;;;;2.53;2.40;;;;;;;;;;5131386;27;20218;-62
2022/06/03 14:39:32;;;;;;;2.42;2.22;;;;;;;;;;5131909;27;20218;-61
2022/06/03 14:42:01;;;;;;;2.30;2.08;;;;;;;;;;5131891;27;20233;-62
2022/06/03 14:44:29;;;;;;;2.20;2.10;;;;;;;;;;5130873;27;20436;-62
2022/06/03 14:46:59;;;;;;;2.10;2.00;;;;;;;;;;5131616;27;20256;-61
2022/06/03 14:49:29;;;;;;;2.10;2.00;;;;;;;;;;5145103;27;20201;-62
2022/06/03 14:52:00;;;;;;;2.00;1.90;;;;;;;;;;5156546;27;20208;-61
2022/06/03 14:54:30;;;;;;;2.33;2.05;;;;;;;;;;5137149;27;20198;-61
2022/06/03 14:57:01;;;;;;;2.05;1.95;;;;;;;;;;5134731;27;20226;-60
2022/06/03 14:59:39;;;;;;;2.30;2.15;;;;;;;;;;5133854;28;20577;-61
2022/06/03 15:02:10;;;;;;;2.20;2.00;;;;;;;;;;5134111;28;20481;-60
2022/06/03 15:04:42;;;;;;;2.35;2.17;;;;;;;;;;5136100;27;20213;-61
2022/06/03 15:07:14;;;;;;;2.00;1.90;;;;;;;;;;5155725;27;20197;-62
2022/06/03 15:09:43;;;;;;;2.35;2.25;;;;;;;;;;5155172;27;20201;-61
2022/06/03 15:12:18;;;;;;;2.67;2.40;;;;;;;;;;5159094;27;20204;-61
2022/06/03 15:14:46;;;;;;;2.30;2.20;;;;;;;;;;5160185;27;20291;-61
2022/06/03 15:17:14;;;;;;;2.20;2.10;;;;;;;;;;5159271;27;20225;-61
2022/06/03 15:19:44;;;;;;;2.40;2.30;;;;;;;;;;5138756;27;20191;-61
2022/06/03 15:22:16;;;;;;;2.35;2.15;;;;;;;;;;5139525;27;20241;-61
2022/06/03 15:24:47;;;;;;;2.30;2.20;;;;;;;;;;5136875;27;20259;-61
2022/06/03 15:27:14;;;;;;;2.20;2.10;;;;;;;;;;5138268;27;20565;-61
2022/06/03 15:29:42;;;;;;;2.20;2.10;;;;;;;;;;5137150;27;20225;-61
2022/06/03 15:32:11;;;;;;;2.45;2.30;;;;;;;;;;5137037;27;20217;-60
2022/06/03 15:34:38;;;;;;;2.10;2.00;;;;;;;;;;5139567;27;20220;-61
2022/06/03 15:37:06;;;;;;;2.17;2.08;;;;;;;;;;5138813;27;20217;-61
2022/06/03 15:39:35;;;;;;;1.90;1.80;;;;;;;;;;5138427;27;20209;-61
2022/06/03 15:42:04;;;;;;;2.17;2.08;;;;;;;;;;5120838;27;20227;-60
2022/06/03 15:44:32;;;;;;;2.08;1.98;;;;;;;;;;5116502;28;20198;-60
2022/06/03 15:47:01;;;;;;;2.70;2.50;;;;;;;;;;5113216;28;20196;-61
2022/06/03 15:49:29;;;;;;;2.20;2.10;;;;;;;;;;5116272;28;20468;-61
2022/06/03 15:51:56;;;;;;;2.05;1.95;;;;;;;;;;5115959;28;20199;-60
2022/06/03 15:54:27;;;;;;;2.30;2.20;;;;;;;;;;5115628;28;20492;-61
2022/06/03 15:57:16;;;;;;;2.35;2.25;;;;;;;;;;5115467;28;20300;-61